Time;durP1;ratioP1;P1;durP2;ratioP2;P2;SDS_P1;SDS_P2;PMS_P1;PMS_P2;Temp;Humidity;BMP_temperature;BMP_pressure;BME280_temperature;BME280_humidity;BME280_pressure;Samples;Min_cycle;Max_cycle;Signal;HPM_P1;HPM_P2
2021/01/19 00:00:18;;;;;;;7.95;4.38;;;5.00;99.90;;;;;;4910473;29;20063;-71
2021/01/19 00:02:44;;;;;;;12.77;4.07;;;5.00;99.90;;;;;;4910569;29;20033;-71
2021/01/19 00:05:10;;;;;;;7.90;3.92;;;5.00;99.90;;;;;;4910674;29;20037;-72
2021/01/19 00:07:35;;;;;;;9.50;5.22;;;5.00;99.90;;;;;;4909341;29;20060;-71
2021/01/19 00:10:01;;;;;;;10.55;4.50;;;5.00;99.90;;;;;;4910891;29;20029;-71
2021/01/19 00:12:27;;;;;;;8.32;4.60;;;5.00;99.90;;;;;;4909056;29;20036;-71
2021/01/19 00:14:53;;;;;;;6.20;3.25;;;5.00;99.90;;;;;;4910196;29;20052;-71
2021/01/19 00:17:20;;;;;;;19.40;5.05;;;5.00;99.90;;;;;;4908909;29;20474;-72
2021/01/19 00:19:45;;;;;;;9.40;5.00;;;5.00;99.90;;;;;;4910083;29;20049;-71
2021/01/19 00:22:11;;;;;;;10.35;4.95;;;5.00;99.90;;;;;;4910271;29;20056;-71
2021/01/19 00:24:37;;;;;;;12.98;4.85;;;5.00;99.90;;;;;;4910444;29;20032;-70
2021/01/19 00:27:03;;;;;;;10.85;5.38;;;5.00;99.90;;;;;;4910074;29;20032;-71
2021/01/19 00:29:29;;;;;;;8.70;4.95;;;5.00;99.90;;;;;;4910138;29;20473;-70
2021/01/19 00:31:54;;;;;;;10.68;5.75;;;5.00;99.90;;;;;;4909911;29;20033;-71
2021/01/19 00:34:20;;;;;;;8.05;4.05;;;4.90;99.90;;;;;;4909721;29;20100;-71
2021/01/19 00:36:48;;;;;;;9.30;4.60;;;4.90;99.90;;;;;;4910010;29;20028;-71
2021/01/19 00:39:13;;;;;;;9.60;5.10;;;4.90;99.90;;;;;;4910189;29;20029;-71
2021/01/19 00:41:39;;;;;;;9.10;4.25;;;4.90;99.90;;;;;;4910023;29;20037;-70
2021/01/19 00:44:06;;;;;;;8.80;5.32;;;4.90;99.90;;;;;;4910152;29;20056;-71
2021/01/19 00:46:32;;;;;;;12.55;5.90;;;4.90;99.90;;;;;;4893101;29;20048;-71
2021/01/19 00:48:57;;;;;;;9.20;4.90;;;4.90;99.90;;;;;;4909467;29;20516;-71
2021/01/19 00:51:23;;;;;;;10.90;5.75;;;4.90;99.90;;;;;;4908894;29;20033;-71
2021/01/19 00:53:49;;;;;;;15.68;6.32;;;4.80;99.90;;;;;;4909631;29;20043;-71
2021/01/19 00:56:14;;;;;;;17.10;4.43;;;4.80;99.90;;;;;;4909442;29;20851;-72
2021/01/19 00:58:40;;;;;;;21.52;5.75;;;4.80;99.90;;;;;;4909811;29;20386;-71
2021/01/19 01:01:05;;;;;;;10.55;5.32;;;4.80;99.90;;;;;;4909924;29;20044;-71
2021/01/19 01:03:33;;;;;;;23.20;5.63;;;4.80;99.90;;;;;;4907858;29;20028;-71
2021/01/19 01:05:59;;;;;;;10.85;5.03;;;4.80;99.90;;;;;;4909643;29;20025;-71
2021/01/19 01:08:25;;;;;;;12.73;6.30;;;4.80;99.90;;;;;;4909332;29;20035;-71
2021/01/19 01:10:52;;;;;;;12.32;5.93;;;4.90;99.90;;;;;;4909250;29;20088;-71
2021/01/19 01:13:20;;;;;;;13.13;7.00;;;4.90;99.90;;;;;;4909604;29;20051;-73
2021/01/19 01:15:46;;;;;;;20.25;6.10;;;4.90;99.90;;;;;;4909227;29;20024;-72
2021/01/19 01:18:14;;;;;;;18.88;6.65;;;4.90;99.90;;;;;;4909145;29;20120;-72
2021/01/19 01:20:41;;;;;;;16.42;7.00;;;4.90;99.90;;;;;;4909663;29;20028;-73
2021/01/19 01:23:06;;;;;;;13.90;6.38;;;4.90;99.90;;;;;;4909106;29;20039;-70
2021/01/19 01:25:32;;;;;;;14.55;6.85;;;4.90;99.90;;;;;;4909156;29;20060;-71
2021/01/19 01:27:59;;;;;;;21.05;6.82;;;4.90;99.90;;;;;;4909196;29;20074;-71
2021/01/19 01:30:25;;;;;;;13.85;6.43;;;4.90;99.90;;;;;;4908775;29;20036;-71
2021/01/19 01:32:51;;;;;;;12.85;7.38;;;5.00;99.90;;;;;;4908947;29;20044;-70
2021/01/19 01:35:21;;;;;;;19.30;7.60;;;4.90;99.90;;;;;;4909328;29;20035;-71
2021/01/19 01:37:49;;;;;;;17.48;8.25;;;5.00;99.90;;;;;;4908916;29;20113;-72
2021/01/19 01:40:23;;;;;;;16.13;8.38;;;5.00;99.90;;;;;;4909476;29;20059;-72
2021/01/19 01:43:08;;;;;;;14.52;7.30;;;5.00;99.90;;;;;;4909010;29;20040;-72
2021/01/19 01:45:34;;;;;;;15.82;6.70;;;5.00;99.90;;;;;;4908901;29;20036;-70
2021/01/19 01:48:01;;;;;;;9.07;6.47;;;5.00;99.90;;;;;;4909091;29;20604;-71
2021/01/19 01:50:26;;;;;;;19.35;8.50;;;5.00;99.90;;;;;;4908633;29;20409;-71
2021/01/19 01:52:52;;;;;;;19.48;8.93;;;5.00;99.90;;;;;;4908821;29;20044;-70
2021/01/19 01:55:19;;;;;;;26.10;7.53;;;5.00;99.90;;;;;;4908884;29;20029;-70
2021/01/19 01:57:46;;;;;;;14.10;7.38;;;5.00;99.90;;;;;;4908754;29;20084;-72
2021/01/19 02:00:13;;;;;;;18.10;8.60;;;5.00;99.90;;;;;;4908760;29;20124;-72
2021/01/19 02:02:51;;;;;;;15.20;7.28;;;5.00;99.90;;;;;;4909883;29;20032;-72
2021/01/19 02:05:18;;;;;;;21.02;9.00;;;5.00;99.90;;;;;;4912287;29;20118;-71
2021/01/19 02:07:50;;;;;;;19.33;9.43;;;5.00;99.90;;;;;;4912718;29;20032;-71
2021/01/19 02:10:25;;;;;;;11.48;6.00;;;5.10;99.90;;;;;;4912696;29;20057;-73
2021/01/19 02:12:57;;;;;;;18.30;8.23;;;5.00;99.90;;;;;;4911084;29;20393;-72
2021/01/19 02:15:36;;;;;;;20.60;10.20;;;5.10;99.90;;;;;;4912769;29;20553;-71
2021/01/19 02:18:39;;;;;;;16.65;8.23;;;5.00;99.90;;;;;;4912049;29;20060;-70
2021/01/19 02:21:32;;;;;;;20.73;9.90;;;5.10;99.90;;;;;;4892162;29;20048;-71
2021/01/19 02:24:14;;;;;;;15.65;8.32;;;5.10;99.90;;;;;;4912557;29;20051;-72
2021/01/19 02:26:43;;;;;;;22.08;9.18;;;5.10;99.90;;;;;;4912383;29;20049;-71
2021/01/19 02:29:49;;;;;;;17.38;8.57;;;5.10;99.90;;;;;;4912630;29;20029;-72
2021/01/19 02:32:42;;;;;;;13.70;6.75;;;5.10;99.90;;;;;;4911837;29;20033;-72
2021/01/19 02:35:24;;;;;;;15.82;6.88;;;5.10;99.90;;;;;;4912487;29;20537;-72
2021/01/19 02:38:05;;;;;;;21.80;8.80;;;5.10;99.90;;;;;;4912098;29;20028;-71
2021/01/19 02:40:31;;;;;;;21.10;6.78;;;5.10;99.90;;;;;;4911872;29;20029;-71
2021/01/19 02:43:09;;;;;;;16.20;8.00;;;5.10;99.90;;;;;;4912244;29;20025;-70
2021/01/19 02:45:36;;;;;;;21.77;9.23;;;5.10;99.90;;;;;;4912143;29;20167;-71
2021/01/19 02:48:05;;;;;;;14.52;8.02;;;5.20;99.90;;;;;;4912009;29;20025;-72
2021/01/19 02:50:32;;;;;;;23.38;7.68;;;5.10;99.90;;;;;;4912026;29;20047;-71
2021/01/19 02:53:01;;;;;;;18.85;8.27;;;5.20;99.90;;;;;;4911592;29;20051;-70
2021/01/19 02:55:28;;;;;;;15.70;8.60;;;5.20;99.90;;;;;;4911694;29;20032;-70
2021/01/19 02:58:23;;;;;;;27.42;10.85;;;5.20;99.90;;;;;;4911927;29;20032;-71
2021/01/19 03:01:18;;;;;;;15.20;8.07;;;5.20;99.90;;;;;;4911502;29;20028;-71
2021/01/19 03:03:48;;;;;;;17.38;9.00;;;5.20;99.90;;;;;;4912043;29;20052;-71
2021/01/19 03:06:16;;;;;;;18.73;9.57;;;5.10;99.90;;;;;;4912059;29;20028;-72
2021/01/19 03:08:43;;;;;;;31.23;10.18;;;5.10;99.90;;;;;;4911569;29;20060;-70
2021/01/19 03:11:14;;;;;;;18.58;8.80;;;5.10;99.90;;;;;;4911695;29;20036;-72
2021/01/19 03:13:41;;;;;;;22.17;9.55;;;5.00;99.90;;;;;;4911522;29;20037;-73
2021/01/19 03:16:08;;;;;;;20.92;10.20;;;5.20;99.90;;;;;;4910834;29;20032;-71
2021/01/19 03:18:35;;;;;;;25.20;11.70;;;5.00;99.90;;;;;;4911666;29;20052;-70
2021/01/19 03:21:06;;;;;;;23.70;9.30;;;5.00;99.90;;;;;;4911372;29;20060;-71
2021/01/19 03:23:33;;;;;;;21.70;8.60;;;5.00;99.90;;;;;;4911599;29;20029;-71
2021/01/19 03:25:59;;;;;;;18.77;8.57;;;4.90;99.90;;;;;;4911672;29;20028;-71
2021/01/19 03:28:25;;;;;;;20.27;8.63;;;4.90;99.90;;;;;;4911153;29;20028;-70
2021/01/19 03:30:51;;;;;;;15.52;8.50;;;4.90;99.90;;;;;;4911240;29;20029;-71
2021/01/19 03:33:17;;;;;;;24.13;9.10;;;4.90;99.90;;;;;;4911241;29;20044;-72
2021/01/19 03:35:43;;;;;;;23.85;9.57;;;4.90;99.90;;;;;;4911095;29;20108;-71
2021/01/19 03:38:08;;;;;;;18.50;9.45;;;4.80;99.90;;;;;;4911539;29;20028;-71
2021/01/19 03:40:34;;;;;;;25.75;10.48;;;4.80;99.90;;;;;;4911181;29;20061;-71
2021/01/19 03:43:00;;;;;;;24.60;8.73;;;4.80;99.90;;;;;;4910820;29;20040;-72
2021/01/19 03:45:27;;;;;;;18.35;8.27;;;4.80;99.90;;;;;;4911065;29;20025;-71
2021/01/19 03:47:53;;;;;;;21.55;9.00;;;4.80;99.90;;;;;;4911003;29;20116;-72
2021/01/19 03:50:19;;;;;;;18.80;9.70;;;4.80;99.90;;;;;;4910540;29;20032;-73
2021/01/19 03:52:45;;;;;;;23.52;9.75;;;4.80;99.90;;;;;;4910920;29;20057;-72
2021/01/19 03:55:11;;;;;;;20.27;9.80;;;4.70;99.90;;;;;;4911269;29;20039;-73
2021/01/19 03:57:37;;;;;;;17.95;8.73;;;4.80;99.90;;;;;;4910822;29;20082;-72
2021/01/19 04:00:11;;;;;;;18.73;9.40;;;4.70;99.90;;;;;;4911075;29;20084;-71
2021/01/19 04:02:37;;;;;;;15.35;7.63;;;4.70;99.90;;;;;;4910878;29;20032;-70
2021/01/19 04:05:04;;;;;;;23.50;8.02;;;4.70;99.90;;;;;;4910498;29;20029;-70
2021/01/19 04:07:29;;;;;;;22.00;9.38;;;4.70;99.90;;;;;;4910821;29;20029;-70
2021/01/19 04:09:55;;;;;;;21.00;9.68;;;4.70;99.90;;;;;;4909100;29;20033;-72
2021/01/19 04:12:21;;;;;;;13.85;7.60;;;4.70;99.90;;;;;;4910393;29;20032;-71
2021/01/19 04:14:46;;;;;;;20.40;8.95;;;4.70;99.90;;;;;;4910873;29;20033;-71
2021/01/19 04:17:12;;;;;;;16.25;8.45;;;4.70;99.90;;;;;;4910396;29;20032;-72
2021/01/19 04:19:38;;;;;;;19.38;8.10;;;4.70;99.90;;;;;;4910488;29;20398;-73
2021/01/19 04:22:04;;;;;;;16.92;8.00;;;4.60;99.90;;;;;;4910584;29;20040;-73
2021/01/19 04:24:29;;;;;;;12.60;5.88;;;4.70;99.90;;;;;;4910158;29;20068;-71
2021/01/19 04:26:55;;;;;;;17.98;9.00;;;4.70;99.90;;;;;;4909260;29;20046;-70
2021/01/19 04:29:20;;;;;;;18.40;8.70;;;4.70;99.90;;;;;;4910301;29;20036;-70
2021/01/19 04:31:46;;;;;;;20.75;8.40;;;4.70;99.90;;;;;;4910198;29;20036;-71
2021/01/19 04:34:12;;;;;;;15.43;7.97;;;4.70;99.90;;;;;;4909924;29;20045;-72
2021/01/19 04:36:37;;;;;;;16.67;6.88;;;4.70;99.90;;;;;;4909190;29;20048;-73
2021/01/19 04:39:04;;;;;;;16.50;7.65;;;4.70;99.90;;;;;;4909931;29;20087;-70
2021/01/19 04:41:29;;;;;;;25.33;10.50;;;4.70;99.90;;;;;;4910086;29;20044;-72
2021/01/19 04:43:58;;;;;;;13.10;7.80;;;4.70;99.90;;;;;;4910158;29;20064;-70
2021/01/19 04:46:25;;;;;;;18.83;9.10;;;4.70;99.90;;;;;;4909807;29;20028;-71
2021/01/19 04:48:53;;;;;;;21.40;8.80;;;4.70;99.90;;;;;;4909972;29;20112;-71
2021/01/19 04:51:22;;;;;;;13.85;5.93;;;4.70;99.90;;;;;;4909959;29;20516;-72
2021/01/19 04:53:57;;;;;;;18.20;7.18;;;4.70;99.90;;;;;;4909416;29;20051;-72
2021/01/19 04:56:27;;;;;;;18.38;9.25;;;4.70;99.90;;;;;;4909940;29;20033;-71
2021/01/19 04:58:54;;;;;;;13.45;6.57;;;4.70;99.90;;;;;;4909732;29;20114;-70
2021/01/19 05:01:35;;;;;;;22.63;8.77;;;4.70;99.90;;;;;;4892587;29;20028;-70
2021/01/19 05:04:27;;;;;;;16.13;7.93;;;4.70;99.90;;;;;;4909612;29;20044;-72
2021/01/19 05:07:08;;;;;;;14.68;7.63;;;4.70;99.90;;;;;;4894206;29;20108;-72
2021/01/19 05:09:38;;;;;;;12.85;7.07;;;4.70;99.90;;;;;;4909719;29;20039;-71
2021/01/19 05:12:05;;;;;;;12.40;6.45;;;4.60;99.90;;;;;;4909667;29;20033;-72
2021/01/19 05:14:38;;;;;;;21.05;6.90;;;4.70;99.90;;;;;;4892329;29;20045;-74
2021/01/19 05:17:05;;;;;;;10.88;5.47;;;4.60;99.90;;;;;;4909682;29;20029;-71
2021/01/19 05:19:30;;;;;;;15.95;7.97;;;4.70;99.90;;;;;;4908979;29;20056;-71
2021/01/19 05:21:56;;;;;;;13.10;6.22;;;4.60;99.90;;;;;;4908077;29;20092;-72
2021/01/19 05:24:23;;;;;;;18.65;6.88;;;4.60;99.90;;;;;;4909259;29;20044;-70
2021/01/19 05:26:49;;;;;;;15.35;7.57;;;4.60;99.90;;;;;;4909112;29;20029;-71
2021/01/19 05:29:15;;;;;;;15.93;6.93;;;4.60;99.90;;;;;;4909535;29;20031;-71
2021/01/19 05:31:40;;;;;;;14.27;6.07;;;4.60;99.90;;;;;;4909705;29;20053;-70
2021/01/19 05:34:13;;;;;;;11.50;6.22;;;4.60;99.90;;;;;;4909044;29;20073;-71
2021/01/19 05:36:44;;;;;;;11.52;5.97;;;4.50;99.90;;;;;;4909420;29;20032;-71
2021/01/19 05:39:24;;;;;;;30.10;6.28;;;4.50;99.90;;;;;;4908986;29;20025;-75
2021/01/19 05:41:54;;;;;;;20.25;5.32;;;4.50;99.90;;;;;;4908814;29;20029;-73
2021/01/19 05:44:30;;;;;;;11.95;5.15;;;4.50;99.90;;;;;;4909027;29;20032;-73
2021/01/19 05:46:59;;;;;;;11.25;4.97;;;4.50;99.90;;;;;;4908905;29;20118;-73
2021/01/19 05:49:27;;;;;;;11.20;4.68;;;4.50;99.90;;;;;;4908850;29;20032;-71
2021/01/19 05:52:03;;;;;;;11.65;6.68;;;4.50;99.90;;;;;;4909341;29;20036;-71
2021/01/19 05:54:38;;;;;;;8.38;4.88;;;4.40;99.90;;;;;;4908703;29;20057;-73
2021/01/19 05:57:09;;;;;;;13.10;6.05;;;4.50;99.90;;;;;;4909173;29;20620;-70
2021/01/19 05:59:42;;;;;;;32.05;6.63;;;4.50;99.90;;;;;;4909250;29;20032;-69
2021/01/19 06:02:09;;;;;;;5.82;4.50;;;4.50;99.90;;;;;;4909183;29;20088;-76
2021/01/19 06:04:53;;;;;;;14.15;6.60;;;4.50;99.90;;;;;;4907931;29;20051;-71
2021/01/19 06:07:20;;;;;;;9.52;5.78;;;4.50;99.90;;;;;;4907887;29;20040;-70
2021/01/19 06:09:47;;;;;;;10.63;5.18;;;4.50;99.90;;;;;;4908691;29;20049;-72
2021/01/19 06:12:14;;;;;;;12.52;5.95;;;4.50;99.90;;;;;;4909146;29;20104;-70
2021/01/19 06:14:45;;;;;;;5.88;3.78;;;4.50;99.90;;;;;;4908864;29;20028;-71
2021/01/19 06:17:20;;;;;;;8.98;4.15;;;4.50;99.90;;;;;;4908760;29;20466;-72
2021/01/19 06:19:48;;;;;;;11.10;5.40;;;4.50;99.90;;;;;;4908820;29;20057;-70
2021/01/19 06:22:19;;;;;;;28.08;5.28;;;4.60;99.90;;;;;;4908789;29;20474;-71
2021/01/19 06:24:47;;;;;;;7.10;4.50;;;4.50;99.90;;;;;;4908804;29;20037;-70
2021/01/19 06:27:25;;;;;;;13.45;5.22;;;4.50;99.90;;;;;;4908506;29;20036;-70
2021/01/19 06:30:07;;;;;;;18.58;6.35;;;4.50;99.90;;;;;;4907649;29;20106;-70
2021/01/19 06:32:49;;;;;;;10.13;5.22;;;4.50;99.90;;;;;;4908449;29;20059;-71
2021/01/19 06:35:18;;;;;;;14.65;4.95;;;4.50;99.90;;;;;;4908400;29;20040;-70
2021/01/19 06:37:45;;;;;;;7.57;3.80;;;4.50;99.90;;;;;;4908400;29;20488;-71
2021/01/19 06:40:14;;;;;;;11.48;5.03;;;4.40;99.90;;;;;;4908849;29;20076;-71
2021/01/19 06:42:40;;;;;;;8.35;4.93;;;4.50;99.90;;;;;;4908467;29;20126;-72
2021/01/19 06:45:11;;;;;;;8.52;3.88;;;4.50;99.90;;;;;;4908735;29;20101;-70
2021/01/19 06:47:46;;;;;;;6.38;3.80;;;4.50;99.90;;;;;;4908812;29;20115;-70
2021/01/19 06:50:11;;;;;;;8.15;4.68;;;4.50;99.90;;;;;;4892907;29;20029;-70
2021/01/19 06:52:41;;;;;;;6.88;3.35;;;4.40;99.90;;;;;;4912180;29;20044;-73
2021/01/19 06:55:20;;;;;;;13.65;3.75;;;4.40;99.90;;;;;;4912501;29;20108;-72
2021/01/19 06:57:51;;;;;;;6.80;4.05;;;4.40;99.90;;;;;;4911709;29;20143;-71
2021/01/19 07:00:23;;;;;;;6.10;3.90;;;4.40;99.90;;;;;;4912079;29;20033;-71
2021/01/19 07:02:51;;;;;;;7.72;4.43;;;4.40;99.90;;;;;;4911778;29;20032;-71
2021/01/19 07:05:20;;;;;;;8.32;4.95;;;4.40;99.90;;;;;;4911426;29;20028;-73
2021/01/19 07:08:21;;;;;;;11.05;5.10;;;4.40;99.90;;;;;;4911967;29;20039;-73
2021/01/19 07:11:06;;;;;;;9.68;5.43;;;4.40;99.90;;;;;;4911761;29;20064;-72
2021/01/19 07:13:38;;;;;;;8.27;3.85;;;4.40;99.90;;;;;;4911548;29;20040;-71
2021/01/19 07:16:05;;;;;;;6.72;3.63;;;4.40;99.90;;;;;;4911980;29;20044;-74
2021/01/19 07:18:49;;;;;;;10.25;2.75;;;4.40;99.90;;;;;;4911131;29;20059;-70
2021/01/19 07:21:17;;;;;;;13.25;4.00;;;4.40;99.90;;;;;;4911489;29;20385;-72
2021/01/19 07:23:45;;;;;;;6.72;3.63;;;4.40;99.90;;;;;;4911814;29;20083;-71
2021/01/19 07:26:17;;;;;;;10.75;5.43;;;4.40;99.90;;;;;;4911156;29;20033;-74
2021/01/19 07:28:43;;;;;;;9.77;4.53;;;4.40;99.90;;;;;;4911755;29;20561;-71
2021/01/19 07:31:16;;;;;;;10.18;5.00;;;4.40;99.90;;;;;;4910297;29;20039;-73
2021/01/19 07:33:44;;;;;;;7.93;4.45;;;4.40;99.90;;;;;;4911215;29;20055;-70
2021/01/19 07:36:17;;;;;;;5.47;3.28;;;4.40;99.90;;;;;;4911593;29;20067;-72
2021/01/19 07:38:43;;;;;;;9.77;5.05;;;4.40;99.90;;;;;;4911608;29;20032;-71
2021/01/19 07:41:09;;;;;;;3.58;2.55;;;4.40;99.90;;;;;;4911322;29;20096;-76
2021/01/19 07:43:36;;;;;;;7.82;3.95;;;4.40;99.90;;;;;;4911378;29;20047;-73
2021/01/19 07:46:03;;;;;;;8.43;4.07;;;4.40;99.90;;;;;;4894308;29;20036;-70
2021/01/19 07:48:33;;;;;;;9.75;3.85;;;4.40;99.90;;;;;;4910851;29;20112;-70
2021/01/19 07:51:15;;;;;;;6.95;3.50;;;4.40;99.90;;;;;;4911209;29;20056;-71
2021/01/19 07:53:54;;;;;;;8.27;4.15;;;4.40;99.90;;;;;;4910848;29;20055;-71
2021/01/19 07:56:24;;;;;;;4.63;2.63;;;4.40;99.90;;;;;;4911090;29;20036;-74
2021/01/19 07:58:50;;;;;;;9.73;4.82;;;4.40;99.90;;;;;;4911054;29;20102;-70
2021/01/19 08:01:34;;;;;;;8.57;4.10;;;4.40;99.90;;;;;;4909983;29;20444;-71
2021/01/19 08:04:10;;;;;;;17.27;4.63;;;4.40;99.90;;;;;;4910809;29;20141;-69
2021/01/19 08:06:38;;;;;;;9.50;3.80;;;4.40;99.90;;;;;;4911028;29;20036;-71
2021/01/19 08:09:18;;;;;;;16.50;5.40;;;4.40;99.90;;;;;;4910806;29;20039;-74
2021/01/19 08:11:45;;;;;;;8.32;4.03;;;4.50;99.90;;;;;;4894038;29;20033;-70
2021/01/19 08:14:11;;;;;;;12.88;4.95;;;4.40;99.90;;;;;;4910620;29;20136;-74
2021/01/19 08:16:37;;;;;;;7.47;4.18;;;4.50;99.90;;;;;;4893779;29;20033;-73
2021/01/19 08:19:10;;;;;;;9.30;4.50;;;4.40;99.90;;;;;;4908450;29;20053;-72
2021/01/19 08:21:52;;;;;;;10.57;4.40;;;4.50;99.90;;;;;;4909860;29;20036;-71
2021/01/19 08:24:21;;;;;;;5.85;3.55;;;4.50;99.90;;;;;;4910420;29;20033;-73
2021/01/19 08:26:48;;;;;;;9.30;4.40;;;4.50;99.90;;;;;;4893400;29;20053;-72
2021/01/19 08:29:18;;;;;;;6.63;3.80;;;4.50;99.90;;;;;;4909923;29;20057;-73
2021/01/19 08:31:57;;;;;;;12.23;4.82;;;4.50;99.90;;;;;;4909107;29;20032;-71
2021/01/19 08:34:25;;;;;;;7.28;4.40;;;4.50;99.90;;;;;;4909563;29;20056;-73
2021/01/19 08:36:51;;;;;;;9.90;4.70;;;4.50;99.90;;;;;;4909493;29;20032;-75
2021/01/19 08:39:18;;;;;;;10.23;5.30;;;4.50;99.90;;;;;;4893218;29;20124;-72
2021/01/19 08:41:45;;;;;;;9.50;4.47;;;4.50;99.90;;;;;;4909836;29;20028;-76
2021/01/19 08:44:12;;;;;;;17.00;5.00;;;4.40;99.90;;;;;;4909439;29;20437;-75
2021/01/19 08:46:39;;;;;;;9.23;4.43;;;4.50;99.90;;;;;;4893350;29;20068;-71
2021/01/19 08:49:12;;;;;;;8.25;3.63;;;4.50;99.90;;;;;;4892371;29;20108;-70
2021/01/19 08:51:42;;;;;;;8.23;4.57;;;4.50;99.90;;;;;;4909694;29;20043;-70
2021/01/19 08:54:10;;;;;;;7.38;3.28;;;4.60;99.90;;;;;;4909799;29;20051;-71
2021/01/19 08:56:40;;;;;;;8.43;4.18;;;4.50;99.90;;;;;;4909499;29;20140;-70
2021/01/19 08:59:06;;;;;;;7.68;4.53;;;4.50;99.90;;;;;;4909095;29;20054;-72
2021/01/19 09:01:32;;;;;;;8.68;4.47;;;4.60;99.90;;;;;;4909072;29;20486;-71
2021/01/19 09:04:00;;;;;;;4.50;2.88;;;4.60;99.90;;;;;;4908891;29;20097;-72
2021/01/19 09:06:26;;;;;;;8.55;4.60;;;4.60;99.90;;;;;;4908804;29;20021;-69
2021/01/19 09:09:03;;;;;;;10.60;4.97;;;4.60;99.90;;;;;;4908370;29;20112;-71
2021/01/19 09:11:31;;;;;;;8.85;4.30;;;4.60;99.90;;;;;;4906318;29;20418;-69
2021/01/19 09:14:06;;;;;;;11.82;5.65;;;4.60;99.90;;;;;;4889850;29;20089;-72
2021/01/19 09:16:33;;;;;;;8.85;5.25;;;4.60;99.90;;;;;;4906618;29;20029;-70
2021/01/19 09:19:01;;;;;;;20.33;5.28;;;4.60;99.90;;;;;;4908956;29;20053;-70
2021/01/19 09:21:28;;;;;;;17.33;5.45;;;4.70;99.90;;;;;;4909464;29;20024;-71
2021/01/19 09:23:54;;;;;;;9.20;5.18;;;4.70;99.90;;;;;;4908908;29;20033;-70
2021/01/19 09:26:21;;;;;;;11.60;5.88;;;4.70;99.90;;;;;;4909038;29;20483;-71
2021/01/19 09:28:47;;;;;;;13.40;5.72;;;4.70;99.90;;;;;;4909242;29;20031;-70
2021/01/19 09:31:24;;;;;;;8.73;4.15;;;4.70;99.90;;;;;;4909056;29;20116;-71
2021/01/19 09:33:52;;;;;;;10.07;4.57;;;4.70;99.90;;;;;;4909137;29;20049;-70
2021/01/19 09:36:19;;;;;;;12.05;6.03;;;4.80;99.90;;;;;;4909095;29;20095;-71
2021/01/19 09:38:48;;;;;;;12.00;5.95;;;4.80;99.90;;;;;;4908589;29;20032;-71
2021/01/19 09:41:17;;;;;;;11.82;5.93;;;4.80;99.90;;;;;;4892164;29;20032;-73
2021/01/19 09:43:48;;;;;;;11.75;5.78;;;4.80;99.90;;;;;;4909510;29;20033;-71
2021/01/19 09:46:15;;;;;;;15.45;5.30;;;4.80;99.90;;;;;;4909100;29;20047;-70
2021/01/19 09:48:41;;;;;;;11.50;6.10;;;4.80;99.90;;;;;;4909466;29;20033;-70
2021/01/19 09:51:07;;;;;;;12.23;5.80;;;4.80;99.90;;;;;;4909343;29;20092;-72
2021/01/19 09:53:35;;;;;;;13.43;6.72;;;4.90;99.90;;;;;;4908959;29;20359;-70
2021/01/19 09:56:01;;;;;;;10.50;5.78;;;4.90;99.90;;;;;;4909107;29;20039;-70
2021/01/19 09:58:28;;;;;;;10.88;5.43;;;4.90;99.90;;;;;;4908701;29;20032;-70
2021/01/19 10:00:54;;;;;;;8.57;5.30;;;4.90;99.90;;;;;;4908429;29;20389;-69
2021/01/19 10:03:25;;;;;;;18.23;5.72;;;4.90;99.90;;;;;;4909074;29;20028;-70
2021/01/19 10:05:58;;;;;;;10.27;5.72;;;4.90;99.90;;;;;;4908037;29;20051;-68
2021/01/19 10:08:24;;;;;;;10.85;6.57;;;5.00;99.90;;;;;;4908462;29;20064;-72
2021/01/19 10:10:50;;;;;;;9.88;4.50;;;5.00;99.90;;;;;;4908648;29;20032;-71
2021/01/19 10:13:15;;;;;;;16.38;6.28;;;5.00;99.90;;;;;;4908301;29;20044;-72
2021/01/19 10:15:41;;;;;;;9.60;5.38;;;5.00;99.90;;;;;;4908965;29;20028;-74
2021/01/19 10:18:07;;;;;;;11.25;6.70;;;5.00;99.90;;;;;;4907939;29;20080;-71
2021/01/19 10:20:34;;;;;;;10.27;6.05;;;5.00;99.90;;;;;;4908108;29;20552;-75
2021/01/19 10:23:04;;;;;;;11.00;6.32;;;5.10;99.90;;;;;;4891733;29;20092;-71
2021/01/19 10:25:32;;;;;;;16.27;7.22;;;5.00;99.90;;;;;;4895388;29;20028;-73
2021/01/19 10:27:59;;;;;;;13.77;6.28;;;5.00;99.90;;;;;;4912241;29;20024;-72
2021/01/19 10:30:33;;;;;;;10.73;5.72;;;5.00;99.90;;;;;;4912428;29;20029;-72
2021/01/19 10:33:00;;;;;;;12.82;5.85;;;5.00;99.90;;;;;;4911997;29;20064;-72
2021/01/19 10:35:30;;;;;;;12.20;6.38;;;5.00;99.90;;;;;;4895566;29;20092;-71
2021/01/19 10:38:01;;;;;;;9.30;5.93;;;5.00;99.90;;;;;;4908203;29;20037;-71
2021/01/19 10:40:28;;;;;;;8.52;5.60;;;5.00;99.90;;;;;;4903467;29;20040;-71
2021/01/19 10:42:54;;;;;;;10.90;5.43;;;5.00;99.90;;;;;;4902729;29;20090;-74
2021/01/19 10:45:31;;;;;;;10.43;5.10;;;5.20;99.90;;;;;;4910184;29;20036;-73
2021/01/19 10:47:59;;;;;;;8.95;4.78;;;5.10;99.90;;;;;;4910758;29;20028;-69
2021/01/19 10:50:31;;;;;;;7.63;4.13;;;5.00;99.90;;;;;;4909446;29;20545;-70
2021/01/19 10:53:03;;;;;;;5.65;3.70;;;5.10;99.90;;;;;;4910795;29;20032;-71
2021/01/19 10:55:30;;;;;;;8.20;4.22;;;5.10;99.90;;;;;;4910914;29;20029;-72
2021/01/19 10:58:04;;;;;;;8.85;5.43;;;5.10;99.90;;;;;;4911225;29;20025;-72
2021/01/19 11:00:31;;;;;;;6.22;3.85;;;5.10;99.90;;;;;;4911005;29;20033;-72
2021/01/19 11:02:56;;;;;;;10.90;4.55;;;5.10;99.90;;;;;;4910276;29;20093;-72
2021/01/19 11:05:24;;;;;;;10.85;5.32;;;5.10;99.90;;;;;;4909895;29;20037;-71
2021/01/19 11:07:51;;;;;;;8.40;4.25;;;5.10;99.90;;;;;;4908340;29;20040;-69
2021/01/19 11:10:19;;;;;;;7.85;4.63;;;5.20;99.90;;;;;;4910164;29;20032;-70
2021/01/19 11:12:47;;;;;;;11.02;5.22;;;5.20;99.90;;;;;;4909917;29;20044;-73
2021/01/19 11:15:14;;;;;;;10.73;5.32;;;5.20;99.90;;;;;;4909945;29;20044;-71
2021/01/19 11:17:40;;;;;;;11.20;5.72;;;5.20;99.90;;;;;;4910095;29;20366;-71
2021/01/19 11:20:09;;;;;;;8.20;4.53;;;5.20;99.90;;;;;;4910409;29;20042;-71
2021/01/19 11:22:36;;;;;;;8.98;5.13;;;5.20;99.90;;;;;;4910627;29;20381;-70
2021/01/19 11:25:04;;;;;;;6.82;3.63;;;5.20;99.90;;;;;;4909820;29;20025;-72
2021/01/19 11:27:29;;;;;;;11.85;5.80;;;5.20;99.90;;;;;;4909168;29;20448;-70
2021/01/19 11:29:55;;;;;;;7.95;4.82;;;5.30;99.90;;;;;;4910317;29;20497;-71
2021/01/19 11:32:21;;;;;;;9.23;5.00;;;5.30;99.90;;;;;;4910504;29;20033;-71
2021/01/19 11:34:47;;;;;;;10.40;5.65;;;5.30;99.90;;;;;;4910254;29;20088;-73
2021/01/19 11:37:15;;;;;;;10.82;5.35;;;5.30;99.90;;;;;;4909881;29;20044;-72
2021/01/19 11:39:42;;;;;;;10.40;5.10;;;5.30;99.90;;;;;;4909957;29;20020;-72
2021/01/19 11:42:09;;;;;;;9.88;4.55;;;5.30;99.90;;;;;;4909931;29;20067;-70
2021/01/19 11:44:36;;;;;;;8.38;4.50;;;5.40;99.90;;;;;;4909013;29;20488;-74
2021/01/19 11:47:02;;;;;;;11.52;5.82;;;5.50;99.90;;;;;;4910355;29;20095;-70
2021/01/19 11:49:28;;;;;;;14.30;5.47;;;5.40;99.90;;;;;;4910010;29;20028;-70
2021/01/19 11:51:53;;;;;;;12.00;5.00;;;5.40;99.90;;;;;;4909972;29;20051;-70
2021/01/19 11:54:19;;;;;;;10.05;5.72;;;5.40;99.90;;;;;;4910459;29;20075;-71
2021/01/19 11:56:48;;;;;;;15.07;5.75;;;5.50;99.90;;;;;;4909481;29;20032;-74
2021/01/19 11:59:15;;;;;;;7.72;3.88;;;5.50;99.90;;;;;;4909441;29;20055;-71
2021/01/19 12:01:44;;;;;;;7.97;3.53;;;5.50;99.90;;;;;;4909476;29;20032;-71
2021/01/19 12:04:14;;;;;;;7.35;3.92;;;5.50;99.90;;;;;;4902228;29;20032;-71
2021/01/19 12:06:42;;;;;;;8.57;4.18;;;5.60;99.90;;;;;;4895611;29;20029;-71
2021/01/19 12:09:14;;;;;;;7.55;4.20;;;5.60;99.90;;;;;;4891674;29;20473;-74
2021/01/19 12:11:51;;;;;;;9.02;4.22;;;5.60;99.90;;;;;;4891664;29;20474;-71
2021/01/19 12:14:18;;;;;;;5.68;2.97;;;5.60;99.90;;;;;;4891513;29;20064;-73
2021/01/19 12:16:44;;;;;;;4.65;2.63;;;5.60;99.90;;;;;;4891526;29;20550;-71
2021/01/19 12:19:12;;;;;;;5.35;3.33;;;5.70;99.90;;;;;;4891091;29;20064;-72
2021/01/19 12:21:55;;;;;;;3.83;2.60;;;5.70;99.90;;;;;;4891617;29;20029;-71
2021/01/19 12:24:22;;;;;;;6.18;3.05;;;5.70;99.90;;;;;;4891249;29;20033;-72
2021/01/19 12:26:51;;;;;;;5.75;3.45;;;5.70;99.90;;;;;;4889868;29;20032;-71
2021/01/19 12:29:18;;;;;;;5.43;3.33;;;5.70;99.90;;;;;;4890961;29;20092;-70
2021/01/19 12:31:45;;;;;;;8.32;3.00;;;5.80;99.90;;;;;;4891676;29;20061;-71
2021/01/19 12:34:11;;;;;;;5.45;2.50;;;5.80;99.90;;;;;;4890782;29;20041;-71
2021/01/19 12:36:36;;;;;;;4.15;1.98;;;5.80;99.90;;;;;;4891426;29;20032;-72
2021/01/19 12:39:03;;;;;;;6.43;3.15;;;5.80;99.90;;;;;;4891153;29;20037;-71
2021/01/19 12:41:29;;;;;;;6.45;3.63;;;5.80;99.90;;;;;;4890771;29;20097;-70
2021/01/19 12:43:55;;;;;;;7.93;3.97;;;5.80;99.90;;;;;;4890843;29;20044;-71
2021/01/19 12:46:21;;;;;;;3.92;2.38;;;5.80;99.90;;;;;;4890856;29;20049;-71
2021/01/19 12:48:47;;;;;;;3.38;1.90;;;5.90;99.90;;;;;;4889534;29;20040;-71
2021/01/19 12:51:17;;;;;;;4.43;3.00;;;5.90;99.90;;;;;;4891144;29;20081;-72
2021/01/19 12:53:44;;;;;;;7.70;3.05;;;5.90;99.90;;;;;;4889734;29;20052;-70
2021/01/19 12:56:11;;;;;;;6.30;2.95;;;5.90;99.90;;;;;;4890482;29;20029;-72
2021/01/19 12:58:37;;;;;;;4.43;2.90;;;6.00;99.90;;;;;;4891011;29;20040;-71
2021/01/19 13:01:03;;;;;;;6.80;3.05;;;6.00;99.90;;;;;;4890468;29;20102;-70